Hordville, NE (68846)

1:19 PM CST on December 06, 2016 (GMT -0600)
West of Bradshaw | | Change Station

Elev 1739 ft 40.88 °N, 97.81 °W | Updated 9 seconds ago

Clear
Clear
29.7 °F
Feels Like 15 °F
N
27.0
Wind Variable Wind from North
Gusts 37.0 mph

Today
High -- | Low -- °F
--% Chance of Precip.
Yesterday
High -- | Low -- °F
Precip. -- in
Pressure 30.10 in
Visibility 10.0 miles
Clouds Clear
Windchill 15 °F
Dew Point 10 °F
Humidity 42%
Rainfall 0.00 in
Snow Depth Not available.
7:42 AM 5:02 PM
Waxing Crescent, 44% visible
METAR KGRI 061853Z 31016G23KT 10SM CLR 00/M13 A3003 RMK AO2 SLP192 T00001133
Pressure 30.10 in
Visibility 10.0 miles
Clouds Clear
Windchill 15 °F
Dew Point 10 °F
Humidity 42%
Rainfall 0.00 in
Snow Depth Not available.
7:42 AM 5:02 PM
Waxing Crescent, 44% visible
METAR KGRI 061853Z 31016G23KT 10SM CLR 00/M13 A3003 RMK AO2 SLP192 T00001133

10-Day Weather Forecast

Almanac

Astronomy

Dec. 06, 2016 Rise Set
Actual Time
Civil Twilight
Nautical Twilight
Astronomical Twilight
Moon
Length of Visible Light
Length of Day
Tomorrow will be .
, % of the Moon is Illuminated

Today's Extremes

State Highs State Lows

Community

WunderPhotos

Upload Photos

1,956,015 photos uploaded!

WunderBlog® & News

Nearby

Air Quality

  Air Quality AQ Index Pollutant
Not available.

Snow Depth

Station Depth Elevation

Earthquake Activity

City Distance Mag. Time & Date
Minimum magnitude displayed is 2.5.

Coastal Water Temperatures

Place Temperature

Stations

Nearby Weather Stations

Station Location Temp. Windchill Dew Point Humidity Wind Precip. Elev Updated Type
                   

Watches & Warnings

There are currently no watches in effect.